Time;durP1;ratioP1;P1;durP2;ratioP2;P2;SDS_P1;SDS_P2;PMS_P1;PMS_P2;Temp;Humidity;BMP_temperature;BMP_pressure;BME280_temperature;BME280_humidity;BME280_pressure;Samples;Min_cycle;Max_cycle;Signal;HPM_P1;HPM_P2
2022/06/03 00:02:26;;;;;;;3.87;2.80;;;;;;;8.16;73.58;101265.48;1739822;80;21529;-76
2022/06/03 00:05:22;;;;;;;5.43;2.93;;;;;;;8.11;73.58;101258.14;1752393;80;21050;-78
2022/06/03 00:08:30;;;;;;;5.07;2.83;;;;;;;8.07;73.63;101262.14;1779227;80;21164;-76
2022/06/03 00:11:24;;;;;;;5.10;2.83;;;;;;;8.03;73.73;101258.23;1749764;80;21541;-76
2022/06/03 00:14:11;;;;;;;3.30;2.63;;;;;;;7.99;73.89;101260.92;1763866;80;21004;-77
2022/06/03 00:17:20;;;;;;;5.20;2.93;;;;;;;7.94;73.83;101257.50;1765748;80;21031;-76
2022/06/03 00:20:05;;;;;;;3.77;2.77;;;;;;;7.90;73.96;101263.22;1726983;82;21031;-76
2022/06/03 00:22:44;;;;;;;4.57;2.80;;;;;;;7.86;74.16;101262.81;1734875;81;21132;-76
2022/06/03 00:25:52;;;;;;;3.40;2.87;;;;;;;7.84;74.14;101271.09;1746155;81;20997;-76
2022/06/03 00:28:37;;;;;;;3.97;2.87;;;;;;;7.79;74.17;101264.64;1702565;83;22310;-76
2022/06/03 00:31:22;;;;;;;4.23;3.17;;;;;;;7.75;74.19;101265.98;1739447;81;21066;-76
2022/06/03 00:34:28;;;;;;;3.37;2.97;;;;;;;7.75;74.61;101262.08;1731921;82;21046;-76
2022/06/03 00:37:41;;;;;;;4.33;2.60;;;;;;;7.73;74.45;101267.75;1702507;82;21239;-78
2022/06/03 00:40:44;;;;;;;4.23;2.77;;;;;;;7.69;74.46;101260.84;1755972;81;21038;-76
2022/06/03 00:43:48;;;;;;;4.47;3.20;;;;;;;7.64;74.55;101260.89;1755757;81;21516;-77
2022/06/03 00:46:49;;;;;;;4.63;3.23;;;;;;;7.61;74.62;101264.84;1684231;82;21727;-76
2022/06/03 00:49:39;;;;;;;3.47;3.10;;;;;;;7.58;74.69;101270.09;1749552;81;21007;-75
2022/06/03 00:52:21;;;;;;;3.60;3.07;;;;;;;7.53;74.73;101261.45;1731767;82;21074;-76
2022/06/03 00:55:31;;;;;;;6.00;3.17;;;;;;;7.50;74.86;101260.18;1717990;81;21058;-76
2022/06/03 00:58:13;;;;;;;3.90;2.97;;;;;;;7.46;74.85;101251.98;1751173;81;21100;-76
2022/06/03 01:00:58;;;;;;;3.60;2.97;;;;;;;7.41;74.95;101255.92;1731516;81;21078;-75
2022/06/03 01:04:02;;;;;;;3.43;2.87;;;;;;;7.41;75.07;101256.38;1755126;81;21557;-76
2022/06/03 01:06:59;;;;;;;4.63;3.00;;;;;;;7.40;75.13;101257.23;1754962;81;21580;-76
2022/06/03 01:10:04;;;;;;;3.83;3.00;;;;;;;7.38;75.27;101257.27;1753929;81;21058;-76
2022/06/03 01:13:19;;;;;;;5.33;3.17;;;;;;;7.36;75.27;101253.80;1677548;85;21090;-75
2022/06/03 01:16:10;;;;;;;4.00;2.97;;;;;;;7.31;75.17;101251.67;1754580;81;21059;-75
2022/06/03 01:18:54;;;;;;;3.50;3.20;;;;;;;7.25;75.21;101256.52;1753467;81;21475;-76
2022/06/03 01:21:43;;;;;;;6.60;3.27;;;;;;;7.22;75.34;101243.50;1756452;80;21586;-75
2022/06/03 01:24:25;;;;;;;3.67;2.67;;;;;;;7.20;75.55;101253.08;1753494;81;21039;-76
2022/06/03 01:27:20;;;;;;;2.57;2.30;;;;;;;7.19;75.45;101251.36;1638726;85;21047;-75
2022/06/03 01:30:18;;;;;;;2.83;2.37;;;;;;;7.17;75.53;101250.95;1678140;85;21085;-75
2022/06/03 01:33:00;;;;;;;5.20;2.60;;;;;;;7.17;75.51;101249.64;1678153;85;21148;-75
2022/06/03 01:36:03;;;;;;;3.40;2.63;;;;;;;7.13;75.50;101247.07;1677502;85;21641;-75
2022/06/03 01:38:45;;;;;;;5.30;2.90;;;;;;;7.11;75.69;101250.13;1677938;85;21448;-76
2022/06/03 01:41:44;;;;;;;2.90;2.53;;;;;;;7.13;75.87;101244.91;1698730;84;21529;-76
2022/06/03 01:44:50;;;;;;;6.03;2.70;;;;;;;7.16;75.99;101254.00;1686749;84;21124;-76
2022/06/03 01:47:38;;;;;;;3.60;2.50;;;;;;;7.17;75.81;101250.50;1704230;84;21161;-76
2022/06/03 01:50:41;;;;;;;2.33;2.13;;;;;;;7.09;75.57;101259.69;1620289;87;21154;-76
2022/06/03 01:53:30;;;;;;;2.67;2.33;;;;;;;7.06;75.64;101256.26;1681851;84;20946;-76
2022/06/03 01:56:18;;;;;;;3.98;2.00;;;;;;;7.03;75.98;101250.63;1704627;84;21074;-76
2022/06/03 01:59:31;;;;;;;3.23;2.33;;;;;;;7.04;75.95;101250.18;1703610;84;21032;-76
2022/06/03 02:02:27;;;;;;;3.90;2.43;;;;;;;7.00;75.87;101257.17;1642993;87;21219;-76
2022/06/03 02:05:17;;;;;;;4.57;2.23;;;;;;;7.00;75.95;101255.02;1638175;87;21197;-77
2022/06/03 02:08:25;;;;;;;2.73;2.20;;;;;;;6.95;75.79;101258.09;1663738;86;21110;-76
2022/06/03 02:11:27;;;;;;;4.13;2.30;;;;;;;6.91;75.78;101257.27;1645269;86;21163;-75
2022/06/03 02:14:08;;;;;;;2.77;2.47;;;;;;;6.86;75.94;101262.50;1649932;86;21026;-75
2022/06/03 02:17:01;;;;;;;2.50;2.27;;;;;;;6.90;76.30;101260.72;1663100;86;21078;-75
2022/06/03 02:20:01;;;;;;;4.00;2.40;;;;;;;6.92;76.34;101253.32;1663545;86;21120;-75
2022/06/03 02:22:54;;;;;;;3.25;2.70;;;;;;;6.90;76.06;101254.21;1661205;86;21078;-75
2022/06/03 02:25:56;;;;;;;3.67;2.50;;;;;;;6.84;75.98;101254.27;1664550;86;21099;-75
2022/06/03 02:31:57;;;;;;;5.03;2.40;;;;;;;6.77;76.17;101246.09;1622360;88;21102;-75
2022/06/03 02:34:41;;;;;;;3.87;2.90;;;;;;;6.72;76.34;101247.86;1666549;85;21125;-75
2022/06/03 02:37:47;;;;;;;3.67;2.50;;;;;;;6.72;76.35;101253.07;1682358;85;21131;-75
2022/06/03 02:40:56;;;;;;;3.83;2.37;;;;;;;6.68;76.18;101243.98;1766511;80;21056;-75
2022/06/03 02:44:08;;;;;;;3.73;2.30;;;;;;;6.63;76.26;101248.80;1752367;80;21027;-75
2022/06/03 02:47:23;;;;;;;2.33;2.13;;;;;;;6.66;76.56;101257.89;1739731;81;21064;-75
2022/06/03 02:50:05;;;;;;;3.07;2.40;;;;;;;6.62;76.45;101254.45;1743002;81;21789;-76
2022/06/03 02:53:03;;;;;;;3.90;2.70;;;;;;;6.63;76.73;101255.31;1741328;81;21068;-75
2022/06/03 02:56:09;;;;;;;3.00;2.70;;;;;;;6.65;76.96;101256.14;1702454;81;21037;-76
2022/06/03 02:59:03;;;;;;;2.87;2.37;;;;;;;6.67;76.88;101256.56;1760029;81;21019;-76
2022/06/03 03:01:50;;;;;;;3.33;2.50;;;;;;;6.63;76.63;101260.08;1765625;80;21042;-76
2022/06/03 03:04:31;;;;;;;2.37;2.13;;;;;;;6.61;76.74;101257.05;1755330;81;21144;-76
2022/06/03 03:07:28;;;;;;;2.90;2.57;;;;;;;6.61;76.81;101263.56;1760905;80;21580;-75
2022/06/03 03:10:37;;;;;;;4.97;2.33;;;;;;;6.64;77.17;101259.19;1763376;81;20998;-75
2022/06/03 03:13:36;;;;;;;4.50;2.80;;;;;;;6.69;77.17;101262.63;1749018;81;21057;-75
2022/06/03 03:16:28;;;;;;;3.07;2.30;;;;;;;6.66;76.93;101260.50;1744260;81;21038;-75
2022/06/03 03:19:15;;;;;;;2.37;2.10;;;;;;;6.63;76.97;101255.31;1748155;81;21100;-75
2022/06/03 03:22:15;;;;;;;2.93;2.47;;;;;;;6.62;77.15;101262.27;1768815;81;21034;-75
2022/06/03 03:25:24;;;;;;;3.75;2.70;;;;;;;6.64;77.33;101256.58;1769076;80;21081;-75
2022/06/03 03:28:14;;;;;;;3.40;2.23;;;;;;;6.66;77.42;101265.27;1739220;81;21034;-75
2022/06/03 03:31:21;;;;;;;2.77;2.50;;;;;;;6.68;77.57;101262.22;1746241;81;21095;-77
2022/06/03 03:34:17;;;;;;;3.43;3.13;;;;;;;6.76;77.88;101271.70;1721946;81;22120;-77
2022/06/03 03:37:02;;;;;;;3.17;2.63;;;;;;;6.84;78.05;101265.99;1709510;83;21500;-75
2022/06/03 03:39:59;;;;;;;3.10;2.70;;;;;;;6.89;78.11;101268.98;1713106;83;21047;-75
2022/06/03 03:43:05;;;;;;;3.00;2.70;;;;;;;6.93;78.12;101267.25;1698196;83;21205;-76
2022/06/03 03:46:06;;;;;;;2.97;2.67;;;;;;;6.99;78.29;101265.03;1690743;84;21183;-75
2022/06/03 03:49:23;;;;;;;5.77;3.33;;;;;;;7.06;78.42;101266.23;1697135;83;21772;-75
2022/06/03 03:52:38;;;;;;;3.30;2.73;;;;;;;7.13;78.56;101274.89;1700300;83;20961;-75
2022/06/03 03:55:43;;;;;;;3.47;2.97;;;;;;;7.23;78.75;101278.27;1691934;83;21024;-75
2022/06/03 03:58:35;;;;;;;6.47;3.30;;;;;;;7.27;78.57;101266.94;1696843;83;21013;-75
2022/06/03 04:01:52;;;;;;;3.77;3.10;;;;;;;7.32;78.62;101266.02;1708646;83;21543;-75
2022/06/03 04:04:53;;;;;;;3.40;2.80;;;;;;;7.38;78.83;101272.47;1663725;86;21946;-75
2022/06/03 04:07:35;;;;;;;6.00;3.57;;;;;;;7.49;79.07;101272.37;1663730;86;20985;-75
2022/06/03 04:10:35;;;;;;;4.03;2.90;;;;;;;7.56;78.99;101280.98;1668222;84;21067;-76
2022/06/03 04:13:35;;;;;;;5.07;3.73;;;;;;;7.67;79.27;101282.17;1660019;84;21082;-76
2022/06/03 04:16:42;;;;;;;6.58;3.40;;;;;;;7.77;79.28;101279.45;1648990;85;21102;-75
2022/06/03 04:19:37;;;;;;;5.70;3.97;;;;;;;7.90;79.48;101279.29;1694261;83;21216;-75
2022/06/03 04:22:50;;;;;;;4.50;3.57;;;;;;;8.05;79.57;101284.34;1715757;82;21042;-76
2022/06/03 04:25:41;;;;;;;4.63;3.90;;;;;;;8.20;79.82;101281.96;1744442;82;21027;-76
2022/06/03 04:28:39;;;;;;;4.87;4.23;;;;;;;8.34;79.87;101286.59;1744422;82;21102;-75
2022/06/03 04:32:06;;;;;;;4.27;3.80;;;;;;;8.44;79.71;101286.89;1744455;82;21102;-76
2022/06/03 04:35:19;;;;;;;5.10;3.83;;;;;;;8.59;80.18;101289.75;1744832;82;21753;-76
2022/06/03 04:38:10;;;;;;;6.20;4.10;;;;;;;8.78;80.81;101284.23;1744237;82;21580;-76
2022/06/03 04:41:13;;;;;;;;;;;;;;;8.98;80.78;101285.21;1818549;78;20992;-76
2022/06/03 04:43:57;;;;;;;5.20;4.20;;;;;;;9.09;81.15;101285.48;1824051;77;20178;-76
2022/06/03 04:46:52;;;;;;;4.53;4.07;;;;;;;9.24;81.19;101282.17;1816866;78;21041;-76
2022/06/03 04:50:03;;;;;;;5.53;4.57;;;;;;;9.40;81.23;101281.02;1771575;78;21099;-76
2022/06/03 04:52:52;;;;;;;5.67;4.40;;;;;;;9.55;81.23;101284.64;1827292;78;20991;-76
2022/06/03 04:55:58;;;;;;;5.30;4.57;;;;;;;9.72;81.20;101283.02;1826227;78;21528;-76
2022/06/03 04:59:13;;;;;;;6.60;4.33;;;;;;;9.86;80.89;101291.05;1821243;78;20989;-75
2022/06/03 05:02:26;;;;;;;5.13;4.50;;;;;;;9.94;80.69;101293.07;1804412;78;21069;-76
2022/06/03 05:05:19;;;;;;;4.33;3.93;;;;;;;10.05;80.79;101297.64;1770073;78;21125;-77
2022/06/03 05:08:25;;;;;;;5.90;4.53;;;;;;;10.19;80.78;101291.66;1824264;78;21028;-78
2022/06/03 05:11:19;;;;;;;5.83;4.80;;;;;;;10.34;80.74;101294.91;1796173;78;21018;-77
2022/06/03 05:14:44;;;;;;;6.23;5.17;;;;;;;10.44;80.73;101292.48;1798518;78;21060;-76
2022/06/03 05:17:58;;;;;;;6.07;5.13;;;;;;;10.55;80.70;101297.03;1802609;78;21011;-77
2022/06/03 05:20:54;;;;;;;6.43;4.97;;;;;;;10.67;80.75;101299.84;1820771;78;21122;-76
2022/06/03 05:23:38;;;;;;;6.97;5.57;;;;;;;10.78;80.75;101303.08;1819951;78;21073;-77
2022/06/03 05:26:43;;;;;;;5.83;5.07;;;;;;;10.89;80.54;101297.13;1812656;78;20959;-81
2022/06/03 05:29:51;;;;;;;6.00;5.13;;;;;;;11.00;80.47;101293.36;1797291;78;21017;-78
2022/06/03 05:32:52;;;;;;;6.63;5.00;;;;;;;11.11;80.36;101296.58;1800720;78;21035;-86
2022/06/03 05:35:40;;;;;;;6.33;5.10;;;;;;;11.25;80.34;101306.31;1805332;78;21191;-78
2022/06/03 05:38:29;;;;;;;8.53;4.97;;;;;;;11.38;80.25;101293.71;1802599;78;21020;-79
2022/06/03 05:44:47;;;;;;;6.87;4.63;;;;;;;11.64;80.13;101295.66;1809508;78;20990;-78
2022/06/03 05:47:27;;;;;;;8.23;4.97;;;;;;;11.79;79.91;101293.91;1825781;78;21473;-79
2022/06/03 05:50:30;;;;;;;5.30;4.03;;;;;;;11.90;79.67;101283.14;1820775;78;21120;-79
2022/06/03 05:53:25;;;;;;;5.57;4.30;;;;;;;12.01;79.29;101291.58;1826458;78;21602;-78
2022/06/03 05:56:26;;;;;;;6.47;3.80;;;;;;;12.13;78.65;101290.81;1812764;78;21553;-78
2022/06/03 05:59:17;;;;;;;4.72;3.95;;;;;;;12.24;78.23;101289.58;1821113;78;21464;-79
2022/06/03 06:02:02;;;;;;;;;;;;;;;12.39;78.35;101291.37;1829629;78;21001;-79
2022/06/03 06:05:17;;;;;;;4.40;3.65;;;;;;;12.52;78.06;101297.95;1811936;78;21223;-80
2022/06/03 06:08:18;;;;;;;4.75;3.55;;;;;;;12.64;77.89;101289.70;1812680;78;21399;-78
2022/06/03 06:11:05;;;;;;;4.15;3.50;;;;;;;12.79;77.64;101299.31;1820623;78;20999;-78
2022/06/03 06:14:18;;;;;;;6.28;3.60;;;;;;;12.93;77.46;101297.95;1818337;78;21023;-79
2022/06/03 06:16:47;;;;;;;5.28;3.33;;;;;;;13.04;77.09;101288.39;1818316;78;21048;-78
2022/06/03 06:19:55;;;;;;;4.78;3.45;;;;;;;13.17;76.68;101288.86;1831484;78;21433;-78
2022/06/03 06:22:34;;;;;;;4.17;3.35;;;;;;;13.30;76.38;101285.37;1831421;78;21496;-77
2022/06/03 06:25:28;;;;;;;4.72;2.92;;;;;;;13.48;76.29;101282.11;1831418;78;20975;-78
2022/06/03 06:28:02;;;;;;;3.00;2.67;;;;;;;13.62;76.13;101281.63;1830783;78;21014;-78
2022/06/03 06:30:56;;;;;;;3.30;2.47;;;;;;;13.75;75.66;101286.86;1815848;78;21073;-78
2022/06/03 06:33:51;;;;;;;3.52;2.60;;;;;;;13.86;75.42;101280.35;1813195;78;21112;-76
2022/06/03 06:37:00;;;;;;;3.95;2.27;;;;;;;13.99;75.46;101278.95;1811388;78;21236;-80
2022/06/03 06:40:07;;;;;;;4.35;2.50;;;;;;;14.12;75.07;101283.33;1821234;78;21627;-80
2022/06/03 06:43:09;;;;;;;7.85;2.45;;;;;;;14.26;74.71;101284.52;1805619;78;20996;-80
2022/06/03 06:45:44;;;;;;;3.37;2.10;;;;;;;14.47;74.68;101290.75;1814873;77;21463;-80
2022/06/03 06:48:38;;;;;;;2.33;1.80;;;;;;;14.67;74.18;101287.81;1811173;78;21768;-80
2022/06/03 06:51:28;;;;;;;2.22;2.00;;;;;;;14.82;73.92;101284.55;1800401;77;21058;-80
2022/06/03 06:54:18;;;;;;;4.45;1.60;;;;;;;15.02;73.58;101287.71;1825122;78;20984;-80
2022/06/03 06:56:50;;;;;;;3.15;1.55;;;;;;;15.22;73.15;101288.19;1772841;78;21033;-83
2022/06/03 06:59:48;;;;;;;1.90;1.60;;;;;;;15.41;72.45;101285.63;1822170;78;21536;-80
2022/06/03 07:02:33;;;;;;;1.60;1.40;;;;;;;15.55;71.77;101282.39;1810774;77;21104;-79
2022/06/03 07:05:28;;;;;;;2.85;1.70;;;;;;;15.71;71.20;101278.63;1802629;78;21026;-80
2022/06/03 07:08:19;;;;;;;2.98;1.70;;;;;;;15.83;70.84;101275.45;1807271;78;21002;-80
2022/06/03 07:11:02;;;;;;;2.85;1.90;;;;;;;15.97;70.46;101272.17;1828802;78;21050;-78
2022/06/03 07:13:34;;;;;;;2.80;1.80;;;;;;;16.15;70.43;101264.70;1818173;78;21520;-80
2022/06/03 07:16:14;;;;;;;2.15;1.70;;;;;;;16.26;69.65;101261.55;1818816;78;21150;-79
2022/06/03 07:21:58;;;;;;;1.30;1.00;;;;;;;16.63;69.31;101254.05;1828781;78;20209;-80
2022/06/03 07:24:52;;;;;;;0.93;0.78;;;;;;;16.80;68.38;101259.03;1819926;78;21481;-79
2022/06/03 07:27:44;;;;;;;1.90;1.00;;;;;;;17.02;67.53;101258.81;1796353;78;21056;-79
2022/06/03 07:30:35;;;;;;;1.00;0.90;;;;;;;17.16;66.62;101245.25;1824727;78;21756;-80
2022/06/03 07:33:17;;;;;;;0.88;0.80;;;;;;;17.29;66.23;101246.81;1774865;80;21087;-79
2022/06/03 07:35:55;;;;;;;1.30;0.82;;;;;;;17.49;65.36;101246.25;1752729;80;21017;-80
2022/06/03 07:38:36;;;;;;;0.90;0.70;;;;;;;17.65;64.74;101247.59;1758645;80;21092;-80
2022/06/03 07:41:27;;;;;;;1.87;1.00;;;;;;;17.71;63.96;101240.19;1753181;80;21109;-80
2022/06/03 07:44:11;;;;;;;1.65;1.00;;;;;;;17.79;63.07;101233.16;1769943;80;22008;-80
2022/06/03 07:47:00;;;;;;;2.00;1.00;;;;;;;17.83;62.53;101236.90;1766074;80;21032;-79
2022/06/03 07:49:25;;;;;;;1.82;0.98;;;;;;;17.88;61.96;101231.36;1771902;80;21067;-79
2022/06/03 07:51:57;;;;;;;0.95;0.75;;;;;;;17.92;61.74;101224.94;1772564;80;21127;-78
2022/06/03 07:54:32;;;;;;;1.00;0.80;;;;;;;17.99;61.39;101225.47;1772827;80;21020;-79
2022/06/03 07:57:04;;;;;;;1.17;0.88;;;;;;;18.02;61.25;101222.64;1762133;80;21105;-80
2022/06/03 07:59:36;;;;;;;2.12;0.90;;;;;;;18.06;60.92;101215.74;1741974;81;21084;-79
2022/06/03 08:02:08;;;;;;;1.80;1.17;;;;;;;18.20;61.25;101218.95;1741844;81;21092;-79
2022/06/03 08:04:38;;;;;;;1.45;1.00;;;;;;;18.38;61.05;101213.09;1740667;81;21077;-79
2022/06/03 08:13:06;;;;;;;1.00;0.90;;;;;;;18.93;60.35;101204.62;1801267;78;21596;-79
2022/06/03 08:15:37;;;;;;;;;;;;;;;19.11;60.57;101203.98;1803817;78;21096;-79
2022/06/03 08:18:07;;;;;;;1.62;1.00;;;;;;;19.27;59.95;101205.25;1822688;78;20444;-79
2022/06/03 08:20:43;;;;;;;1.90;0.98;;;;;;;19.44;59.78;101210.86;1817313;78;21005;-79
2022/06/03 08:23:11;;;;;;;1.25;1.00;;;;;;;19.53;59.34;101202.80;1828101;78;21135;-78
2022/06/03 08:25:43;;;;;;;1.95;1.12;;;;;;;19.65;59.02;101191.86;1813331;78;21270;-78
2022/06/03 08:28:14;;;;;;;0.95;0.90;;;;;;;19.78;58.78;101192.84;1802723;78;20999;-81
2022/06/03 08:30:47;;;;;;;3.12;1.05;;;;;;;19.92;58.21;101201.28;1818982;78;21484;-80
2022/06/03 08:33:18;;;;;;;1.70;0.95;;;;;;;20.04;58.09;101202.70;1821548;78;20971;-82
2022/06/03 08:35:48;;;;;;;2.33;1.00;;;;;;;20.17;57.69;101206.73;1794164;78;21890;-81
2022/06/03 08:38:21;;;;;;;2.80;0.95;;;;;;;20.28;57.39;101204.71;1812207;78;21093;-80
2022/06/03 08:41:30;;;;;;;0.93;0.68;;;;;;;20.39;56.72;101199.54;1812604;78;21048;-80
2022/06/03 08:44:29;;;;;;;1.95;1.00;;;;;;;20.47;56.37;101199.05;1824487;78;20952;-80
2022/06/03 08:47:17;;;;;;;1.98;1.12;;;;;;;20.62;55.92;101202.07;1826513;78;21223;-79
2022/06/03 08:50:13;;;;;;;1.70;1.00;;;;;;;20.71;55.15;101198.78;1822557;78;21140;-79
2022/06/03 08:53:10;;;;;;;1.00;0.80;;;;;;;20.76;54.84;101191.83;1821768;78;21496;-81
2022/06/03 08:56:03;;;;;;;2.15;0.82;;;;;;;20.87;54.63;101187.95;1825453;78;21431;-80
2022/06/03 08:59:01;;;;;;;1.37;0.85;;;;;;;21.00;54.23;101187.95;1815583;78;21029;-81
2022/06/03 09:01:36;;;;;;;2.30;1.00;;;;;;;21.11;53.63;101176.56;1825136;78;21485;-81
2022/06/03 09:04:33;;;;;;;3.72;1.27;;;;;;;21.22;53.54;101177.16;1820045;78;21026;-79
2022/06/03 09:07:18;;;;;;;2.70;1.15;;;;;;;21.36;53.11;101181.05;1805950;78;21046;-78
2022/06/03 09:10:13;;;;;;;4.30;0.98;;;;;;;21.49;53.02;101175.25;1808729;78;21024;-79
2022/06/03 09:12:51;;;;;;;1.95;0.90;;;;;;;21.64;52.71;101176.45;1812281;78;21005;-78
2022/06/03 09:15:23;;;;;;;1.30;0.88;;;;;;;21.78;51.86;101178.98;1803303;78;21090;-78
2022/06/03 09:18:04;;;;;;;2.20;0.95;;;;;;;21.83;51.23;101176.84;1826757;78;21078;-78
2022/06/03 09:20:39;;;;;;;0.88;0.80;;;;;;;21.81;50.75;101174.30;1827003;78;20988;-78
2022/06/03 09:23:11;;;;;;;3.20;0.90;;;;;;;21.82;50.34;101181.34;1815663;78;21373;-78
2022/06/03 09:25:47;;;;;;;1.65;0.90;;;;;;;21.82;50.12;101174.66;1798517;78;22262;-79
2022/06/03 09:28:19;;;;;;;1.75;1.00;;;;;;;21.82;49.72;101169.33;1817544;78;21475;-78
2022/06/03 09:30:49;;;;;;;1.40;0.95;;;;;;;21.93;50.16;101176.56;1806202;78;21329;-78
2022/06/03 09:33:18;;;;;;;;;;;;;;;22.08;49.86;101179.08;1817489;78;20991;-78
2022/06/03 09:35:49;;;;;;;1.12;0.80;;;;;;;22.10;48.91;101182.49;1828526;78;20439;-77
2022/06/03 09:38:21;;;;;;;0.85;0.80;;;;;;;22.17;49.02;101175.72;1805788;78;20983;-76
2022/06/03 09:40:49;;;;;;;3.67;0.90;;;;;;;22.21;48.97;101170.08;1822036;78;21491;-83
2022/06/03 09:43:24;;;;;;;3.45;1.00;;;;;;;22.32;48.96;101170.62;1812380;78;21092;-80
2022/06/03 09:45:54;;;;;;;1.55;1.00;;;;;;;22.46;48.76;101167.78;1817965;78;21003;-80
2022/06/03 09:48:26;;;;;;;2.58;1.00;;;;;;;22.60;48.29;101169.41;1824685;78;21008;-79
2022/06/03 09:50:57;;;;;;;1.87;1.00;;;;;;;22.71;48.15;101161.44;1802928;78;21481;-79
2022/06/03 09:53:30;;;;;;;1.50;0.90;;;;;;;22.86;47.88;101159.89;1819507;78;21022;-78
2022/06/03 09:56:00;;;;;;;1.25;1.00;;;;;;;22.99;47.60;101161.18;1815405;78;21188;-80
2022/06/03 09:58:34;;;;;;;2.05;1.10;;;;;;;23.07;46.92;101160.09;1812872;78;21009;-80
2022/06/03 10:01:03;;;;;;;4.17;1.17;;;;;;;23.15;46.89;101155.85;1822149;78;21038;-78
2022/06/03 10:03:32;;;;;;;1.00;0.80;;;;;;;23.25;46.58;101152.45;1821128;78;21554;-78
2022/06/03 10:06:00;;;;;;;3.75;1.00;;;;;;;23.31;46.59;101149.31;1803572;78;21010;-78
2022/06/03 10:13:48;;;;;;;1.25;0.90;;;;;;;23.70;46.35;101137.75;1804106;78;20976;-79
2022/06/03 10:16:16;;;;;;;3.67;1.10;;;;;;;23.86;46.01;101140.91;1826105;78;21559;-79
2022/06/03 10:18:49;;;;;;;2.37;1.07;;;;;;;24.02;46.04;101143.17;1821587;78;21021;-79
2022/06/03 10:21:21;;;;;;;1.22;1.00;;;;;;;24.25;46.04;101138.13;1821015;78;21062;-79
2022/06/03 10:24:00;;;;;;;1.10;1.00;;;;;;;24.48;45.14;101140.24;1813796;78;21017;-79
2022/06/03 10:26:48;;;;;;;3.25;1.00;;;;;;;24.61;44.90;101143.22;1812255;78;21052;-79
2022/06/03 10:29:16;;;;;;;3.60;1.00;;;;;;;24.76;44.29;101135.22;1814009;78;21049;-78
2022/06/03 10:32:03;;;;;;;1.92;0.93;;;;;;;25.03;44.08;101135.19;1811648;78;21030;-79
2022/06/03 10:34:41;;;;;;;1.10;1.00;;;;;;;25.23;43.16;101138.84;1824060;78;21778;-78
2022/06/03 10:37:14;;;;;;;5.55;0.90;;;;;;;25.40;42.65;101136.02;1811548;77;21324;-79
2022/06/03 10:39:43;;;;;;;2.75;1.00;;;;;;;25.64;42.99;101134.36;1794394;77;21552;-78
2022/06/03 10:42:18;;;;;;;1.92;1.10;;;;;;;25.90;42.28;101132.88;1827013;78;21077;-78
2022/06/03 10:44:58;;;;;;;4.03;1.10;;;;;;;26.14;41.83;101120.91;1828867;78;20975;-79
2022/06/03 10:47:39;;;;;;;2.85;1.20;;;;;;;26.42;41.78;101117.36;1810862;78;21104;-79
2022/06/03 10:50:12;;;;;;;2.55;1.10;;;;;;;26.74;41.52;101118.06;1798642;78;20990;-78
2022/06/03 11:01:41;;;;;;;1.57;1.20;;;;;;;27.67;39.37;101105.56;1815324;78;21113;-79
2022/06/03 11:04:33;;;;;;;1.50;0.90;;;;;;;27.74;39.14;101103.47;1812137;78;21069;-79
2022/06/03 11:07:05;;;;;;;2.30;1.00;;;;;;;27.87;38.96;101107.16;1817229;78;21043;-79
2022/06/03 11:09:34;;;;;;;2.05;0.82;;;;;;;28.08;38.42;101097.44;1814348;78;21103;-79
2022/06/03 11:12:05;;;;;;;1.50;0.90;;;;;;;28.25;38.07;101098.43;1812807;78;21040;-78
2022/06/03 11:14:41;;;;;;;1.77;0.80;;;;;;;28.52;37.54;101096.64;1823717;78;21257;-79
2022/06/03 11:17:34;;;;;;;1.27;0.80;;;;;;;28.62;36.70;101098.75;1821181;78;21045;-79
2022/06/03 11:20:04;;;;;;;0.80;0.50;;;;;;;28.68;35.54;101092.72;1797714;78;21049;-79
2022/06/03 11:22:36;;;;;;;2.12;0.90;;;;;;;28.77;34.87;101087.74;1805526;78;20995;-79
2022/06/03 11:25:14;;;;;;;1.77;0.80;;;;;;;28.89;35.01;101089.16;1816595;78;20983;-78
2022/06/03 11:28:02;;;;;;;1.75;0.95;;;;;;;28.94;34.75;101083.29;1824149;78;21104;-79
2022/06/03 11:30:44;;;;;;;0.85;0.80;;;;;;;29.01;34.53;101082.13;1827413;78;21074;-79
2022/06/03 11:33:27;;;;;;;1.87;0.90;;;;;;;29.02;34.35;101073.05;1817580;78;21029;-79
2022/06/03 11:36:11;;;;;;;1.67;1.15;;;;;;;29.10;34.38;101065.87;1806022;78;20953;-78
2022/06/03 11:38:52;;;;;;;2.15;0.85;;;;;;;29.10;34.16;101067.73;1815945;78;21052;-79
2022/06/03 11:41:37;;;;;;;2.45;0.80;;;;;;;29.23;33.94;101067.26;1810561;78;21083;-79
2022/06/03 11:44:27;;;;;;;1.02;0.78;;;;;;;29.32;33.46;101060.39;1825582;78;21410;-79
2022/06/03 11:47:06;;;;;;;1.10;0.90;;;;;;;29.35;33.03;101054.66;1811945;78;21013;-79
2022/06/03 11:49:34;;;;;;;1.32;0.80;;;;;;;29.42;32.60;101044.04;1775129;78;21002;-79
2022/06/03 11:52:03;;;;;;;0.88;0.80;;;;;;;29.47;32.44;101044.40;1776016;79;21096;-78
2022/06/03 11:54:31;;;;;;;2.45;1.00;;;;;;;29.57;32.68;101049.67;1807868;78;21799;-79
2022/06/03 11:57:02;;;;;;;0.75;0.57;;;;;;;29.75;32.22;101033.34;1806582;78;21035;-78
2022/06/03 11:59:41;;;;;;;1.40;0.82;;;;;;;29.81;32.10;101028.62;1828435;78;21025;-79
2022/06/03 12:02:18;;;;;;;3.27;1.05;;;;;;;29.79;31.84;101023.87;1824949;78;21495;-79
2022/06/03 12:05:03;;;;;;;4.30;1.05;;;;;;;29.79;31.61;101020.70;1814100;78;20981;-79
2022/06/03 12:07:44;;;;;;;0.82;0.60;;;;;;;29.81;31.53;101022.38;1826444;78;21204;-79
2022/06/03 12:10:16;;;;;;;1.05;0.75;;;;;;;29.93;31.23;101022.38;1817079;78;21560;-79
2022/06/03 12:15:48;;;;;;;2.60;0.65;;;;;;;29.91;30.89;101014.45;1804621;78;20975;-79
2022/06/03 12:18:35;;;;;;;1.92;1.00;;;;;;;29.94;31.06;101016.81;1824343;78;21098;-79
2022/06/03 12:21:16;;;;;;;1.85;0.98;;;;;;;30.05;30.67;101011.58;1776757;79;21450;-79
2022/06/03 12:23:55;;;;;;;1.35;0.70;;;;;;;30.12;30.69;101004.47;1800245;78;21513;-79
2022/06/03 12:26:31;;;;;;;2.02;0.90;;;;;;;30.07;30.44;100999.23;1826877;78;21022;-79
2022/06/03 12:29:13;;;;;;;3.30;0.98;;;;;;;30.07;30.47;100999.23;1828088;78;21249;-79
2022/06/03 12:31:46;;;;;;;1.47;0.82;;;;;;;29.98;30.22;101000.58;1812440;78;21009;-79
2022/06/03 12:34:27;;;;;;;1.40;0.82;;;;;;;29.61;30.32;100990.75;1818155;78;21116;-79
2022/06/03 12:37:17;;;;;;;3.72;0.98;;;;;;;29.35;30.38;100993.91;1824313;78;20968;-79
2022/06/03 12:40:22;;;;;;;1.17;0.82;;;;;;;29.02;30.41;100988.88;1736985;80;21008;-79
2022/06/03 12:42:49;;;;;;;2.47;0.90;;;;;;;28.89;30.68;100985.27;1761803;80;21024;-82
2022/06/03 12:45:27;;;;;;;2.83;1.10;;;;;;;28.69;30.90;100985.19;1783609;80;21179;-78
2022/06/03 12:47:55;;;;;;;1.73;1.00;;;;;;;28.76;31.21;100978.12;1726013;80;21120;-81
2022/06/03 12:50:28;;;;;;;1.52;1.15;;;;;;;28.97;30.98;100970.98;1761105;80;21056;-80
2022/06/03 12:53:25;;;;;;;1.90;1.00;;;;;;;29.05;31.03;100966.15;1777163;80;21036;-80
2022/06/03 12:55:57;;;;;;;4.12;1.20;;;;;;;29.20;31.16;100960.95;1741113;80;21014;-82
2022/06/03 12:58:47;;;;;;;1.12;0.93;;;;;;;29.33;30.73;100955.93;1735790;80;21306;-79
2022/06/03 13:01:35;;;;;;;2.72;1.00;;;;;;;29.31;30.54;100948.49;1749217;80;21128;-78
2022/06/03 13:04:27;;;;;;;2.45;0.90;;;;;;;29.39;30.61;100940.41;1744502;80;21030;-82
2022/06/03 13:07:17;;;;;;;3.15;1.25;;;;;;;29.40;30.93;100940.73;1770761;80;20987;-78
2022/06/03 13:10:04;;;;;;;1.32;1.00;;;;;;;29.55;30.88;100943.64;1757619;80;21043;-83
2022/06/03 13:12:40;;;;;;;1.20;0.80;;;;;;;29.52;30.35;100930.48;1763145;80;21067;-82
2022/06/03 13:15:28;;;;;;;4.50;1.00;;;;;;;29.56;30.57;100926.41;1784064;78;21242;-81
2022/06/03 13:18:18;;;;;;;2.58;1.00;;;;;;;29.44;30.12;100923.20;1809695;78;21501;-85
2022/06/03 13:20:59;;;;;;;1.00;0.80;;;;;;;28.87;30.51;100919.83;1827660;78;20999;-78
2022/06/03 13:23:45;;;;;;;1.57;1.27;;;;;;;28.27;30.99;100920.34;1825390;77;21607;-82
2022/06/03 13:26:30;;;;;;;2.50;1.17;;;;;;;27.95;31.51;100918.63;1788419;78;21033;-81
2022/06/03 13:29:01;;;;;;;1.92;1.07;;;;;;;27.99;32.09;100915.11;1813966;77;21790;-84
2022/06/03 13:31:52;;;;;;;1.65;1.00;;;;;;;28.15;31.89;100911.69;1824354;77;21077;-79
2022/06/03 13:34:30;;;;;;;2.50;0.98;;;;;;;28.18;31.94;100902.78;1803462;77;21035;-80
2022/06/03 13:37:24;;;;;;;3.40;1.07;;;;;;;28.22;31.71;100894.73;1822461;77;21041;-80
2022/06/03 13:39:57;;;;;;;4.72;1.22;;;;;;;28.35;31.59;100890.74;1770464;78;21004;-84